Time;durP1;ratioP1;P1;durP2;ratioP2;P2;SDS_P1;SDS_P2;PMS_P1;PMS_P2;Temp;Humidity;BMP_temperature;BMP_pressure;BME280_temperature;BME280_humidity;BME280_pressure;Samples;Min_cycle;Max_cycle;Signal;HPM_P1;HPM_P2
2023/10/21 00:00:33;;;;;;;63.20;36.25;;;10.50;99.90;;;;;;5033817;28;20227;-71
2023/10/21 00:02:58;;;;;;;70.03;38.40;;;10.50;99.90;;;;;;5033478;28;20176;-63
2023/10/21 00:05:25;;;;;;;70.85;39.03;;;10.50;99.90;;;;;;5015827;28;20184;-60
2023/10/21 00:07:51;;;;;;;67.88;38.45;;;10.60;99.90;;;;;;5033792;28;20667;-67
2023/10/21 00:10:17;;;;;;;77.10;38.58;;;10.60;99.90;;;;;;5016335;28;20188;-63
2023/10/21 00:12:44;;;;;;;80.20;40.15;;;10.60;99.90;;;;;;5033707;28;20180;-62
2023/10/21 00:15:11;;;;;;;75.63;39.78;;;10.60;99.90;;;;;;5033401;28;20187;-61
2023/10/21 00:17:37;;;;;;;80.25;39.33;;;10.60;99.90;;;;;;5015681;28;20203;-71
2023/10/21 00:20:06;;;;;;;77.40;40.90;;;10.70;99.90;;;;;;5033898;28;20176;-71
2023/10/21 00:22:33;;;;;;;79.07;41.38;;;10.60;99.90;;;;;;5033557;28;20190;-71
2023/10/21 00:25:00;;;;;;;83.18;42.13;;;10.70;99.90;;;;;;5015577;28;20184;-69
2023/10/21 00:27:26;;;;;;;89.22;45.08;;;10.70;99.90;;;;;;5033392;28;20208;-65
2023/10/21 00:29:52;;;;;;;88.57;43.75;;;10.70;99.90;;;;;;5033114;28;20187;-67
2023/10/21 00:32:18;;;;;;;86.57;44.30;;;10.70;99.90;;;;;;5033086;28;20176;-70
2023/10/21 00:34:44;;;;;;;96.50;45.30;;;10.80;99.90;;;;;;5015621;28;20179;-63
2023/10/21 00:37:10;;;;;;;84.65;41.72;;;10.80;99.90;;;;;;5015359;28;20229;-61
2023/10/21 00:39:37;;;;;;;90.05;43.03;;;10.80;99.90;;;;;;5015672;28;20182;-66
2023/10/21 00:42:06;;;;;;;82.75;43.17;;;10.90;99.90;;;;;;5015254;28;20242;-65
2023/10/21 00:44:32;;;;;;;82.72;43.03;;;10.90;99.90;;;;;;5032828;28;20246;-70
2023/10/21 00:46:59;;;;;;;88.93;42.88;;;10.90;99.90;;;;;;4998890;28;20282;-65
2023/10/21 00:49:28;;;;;;;90.93;44.67;;;10.90;99.90;;;;;;5015324;28;20183;-63
2023/10/21 00:51:55;;;;;;;87.75;43.25;;;11.00;99.90;;;;;;5015696;28;20192;-62
2023/10/21 00:54:25;;;;;;;71.60;41.42;;;11.00;99.90;;;;;;5015193;28;20188;-67
2023/10/21 00:56:51;;;;;;;86.10;44.13;;;11.00;99.90;;;;;;5032318;28;20287;-71
2023/10/21 00:59:17;;;;;;;80.82;42.80;;;11.10;99.90;;;;;;5015104;28;20667;-64
2023/10/21 01:01:44;;;;;;;82.95;42.05;;;11.10;99.90;;;;;;5032760;28;20184;-62
2023/10/21 01:04:12;;;;;;;78.20;41.58;;;11.10;99.90;;;;;;5015192;28;20179;-62
2023/10/21 01:06:38;;;;;;;77.68;42.03;;;11.10;99.90;;;;;;5015338;28;20179;-60
2023/10/21 01:09:04;;;;;;;76.07;41.72;;;11.10;99.90;;;;;;5032925;28;20214;-68
2023/10/21 01:11:30;;;;;;;78.43;41.95;;;11.20;99.90;;;;;;5033215;28;20211;-69
2023/10/21 01:13:56;;;;;;;81.78;42.70;;;11.20;99.90;;;;;;5014767;28;20180;-69
2023/10/21 01:16:23;;;;;;;73.53;41.47;;;11.20;99.90;;;;;;5032476;28;20270;-61
2023/10/21 01:18:49;;;;;;;79.10;41.45;;;11.20;99.90;;;;;;5014692;28;20180;-67
2023/10/21 01:21:15;;;;;;;78.18;42.05;;;11.20;99.90;;;;;;5014860;28;20538;-60
2023/10/21 01:23:41;;;;;;;72.10;40.08;;;11.20;99.90;;;;;;5014568;28;20534;-62
2023/10/21 01:26:07;;;;;;;81.38;42.22;;;11.20;99.90;;;;;;5014852;28;20175;-67
2023/10/21 01:28:34;;;;;;;71.25;41.55;;;11.20;99.90;;;;;;5014743;28;20252;-62
2023/10/21 01:31:00;;;;;;;64.03;38.58;;;11.20;99.90;;;;;;5014952;28;20264;-68
2023/10/21 01:33:26;;;;;;;72.38;39.58;;;11.20;99.90;;;;;;5014575;28;20183;-61
2023/10/21 01:35:53;;;;;;;67.43;38.00;;;11.20;99.90;;;;;;5032010;28;20210;-60
2023/10/21 01:38:19;;;;;;;71.75;39.95;;;11.10;99.90;;;;;;5032251;28;20187;-63
2023/10/21 01:40:46;;;;;;;74.95;39.65;;;11.10;99.90;;;;;;5015147;28;20349;-63
2023/10/21 01:43:12;;;;;;;69.93;38.92;;;11.10;99.90;;;;;;5032109;28;20168;-63
2023/10/21 01:45:38;;;;;;;81.05;40.30;;;11.10;99.90;;;;;;5014532;28;20568;-62
2023/10/21 01:48:05;;;;;;;77.07;40.35;;;11.10;99.90;;;;;;5032168;28;20669;-71
2023/10/21 01:50:31;;;;;;;79.55;41.00;;;11.10;99.90;;;;;;5032391;28;20721;-63
2023/10/21 01:52:57;;;;;;;80.20;40.88;;;11.00;99.90;;;;;;5032164;28;20191;-66
2023/10/21 01:55:24;;;;;;;73.20;40.85;;;11.00;99.90;;;;;;5031786;28;20179;-62
2023/10/21 01:57:50;;;;;;;80.07;41.25;;;11.10;99.90;;;;;;5031915;28;20516;-64
2023/10/21 02:00:18;;;;;;;73.97;40.80;;;11.00;99.90;;;;;;4997530;28;20255;-68
2023/10/21 02:02:56;;;;;;;79.22;40.00;;;11.00;99.90;;;;;;5013900;28;20191;-62
2023/10/21 02:05:23;;;;;;;75.60;40.00;;;11.00;99.90;;;;;;4998054;28;20167;-64
2023/10/21 02:07:50;;;;;;;67.13;38.47;;;11.00;99.90;;;;;;5031630;28;20679;-62
2023/10/21 02:10:19;;;;;;;67.15;39.22;;;11.00;99.90;;;;;;5031803;28;20616;-62
2023/10/21 02:12:45;;;;;;;63.78;38.55;;;11.00;99.90;;;;;;5031509;28;20195;-67
2023/10/21 02:15:17;;;;;;;69.68;39.00;;;11.00;99.90;;;;;;4998327;28;20316;-63
2023/10/21 02:17:44;;;;;;;67.05;38.55;;;11.00;99.90;;;;;;5014050;28;20573;-62
2023/10/21 02:20:12;;;;;;;74.55;38.72;;;11.00;99.90;;;;;;5031742;28;20220;-62
2023/10/21 02:22:39;;;;;;;67.70;38.33;;;10.90;99.90;;;;;;5013941;28;20184;-62
2023/10/21 02:25:07;;;;;;;67.18;37.25;;;10.90;99.90;;;;;;5031518;28;20184;-64
2023/10/21 02:27:32;;;;;;;64.25;36.88;;;10.90;99.90;;;;;;5016402;28;20211;-64
2023/10/21 02:29:59;;;;;;;59.72;36.25;;;10.80;99.90;;;;;;5034755;28;20188;-62
2023/10/21 02:32:24;;;;;;;64.95;37.65;;;10.80;99.90;;;;;;5001801;28;20597;-67
2023/10/21 02:34:55;;;;;;;65.18;37.47;;;10.80;99.90;;;;;;5017874;28;20183;-65
2023/10/21 02:37:22;;;;;;;66.72;37.28;;;10.80;99.90;;;;;;5018131;28;20175;-61
2023/10/21 02:39:48;;;;;;;73.55;38.17;;;10.80;99.90;;;;;;5018174;28;20207;-63
2023/10/21 02:42:14;;;;;;;66.72;37.33;;;10.70;99.90;;;;;;5017480;28;20176;-67
2023/10/21 02:44:40;;;;;;;64.25;36.17;;;10.70;99.90;;;;;;5017991;28;20192;-69
2023/10/21 02:47:07;;;;;;;63.13;36.30;;;10.70;99.90;;;;;;5034999;28;20659;-61
2023/10/21 02:49:33;;;;;;;67.72;36.75;;;10.70;99.90;;;;;;5017520;28;20643;-67
2023/10/21 02:51:59;;;;;;;60.85;35.80;;;10.60;99.90;;;;;;5035656;28;20263;-67
2023/10/21 02:54:25;;;;;;;65.88;36.53;;;10.60;99.90;;;;;;5017886;28;20203;-66
2023/10/21 02:56:51;;;;;;;60.53;34.38;;;10.50;99.90;;;;;;5034967;28;20179;-69
2023/10/21 02:59:18;;;;;;;60.67;34.83;;;10.50;99.90;;;;;;5017002;28;20288;-66
2023/10/21 03:01:44;;;;;;;61.38;34.97;;;10.50;99.90;;;;;;5017134;28;20180;-62
2023/10/21 03:04:10;;;;;;;60.28;34.97;;;10.50;99.90;;;;;;5034992;28;20642;-67
2023/10/21 03:06:36;;;;;;;64.60;36.08;;;10.50;99.90;;;;;;5000788;28;20259;-63
2023/10/21 03:09:06;;;;;;;62.03;35.03;;;10.40;99.90;;;;;;5033971;28;20208;-62
2023/10/21 03:11:32;;;;;;;59.22;34.78;;;10.40;99.90;;;;;;5017524;28;20234;-62
2023/10/21 03:13:58;;;;;;;69.40;36.63;;;10.40;99.90;;;;;;5034643;28;20179;-62
2023/10/21 03:16:24;;;;;;;65.57;36.75;;;10.40;99.90;;;;;;5034569;28;20176;-69
2023/10/21 03:18:51;;;;;;;70.38;37.03;;;10.50;99.90;;;;;;5035276;28;20628;-62
2023/10/21 03:21:17;;;;;;;68.07;38.03;;;10.40;99.90;;;;;;5035026;28;20191;-64
2023/10/21 03:23:44;;;;;;;64.00;37.30;;;10.50;99.90;;;;;;5034810;28;20184;-61
2023/10/21 03:26:10;;;;;;;66.65;38.50;;;10.50;99.90;;;;;;5034878;28;20179;-66
2023/10/21 03:28:36;;;;;;;66.47;38.83;;;10.50;99.90;;;;;;5034944;28;20265;-66
2023/10/21 03:31:06;;;;;;;65.05;37.65;;;10.50;99.90;;;;;;5016630;28;20238;-63
2023/10/21 03:33:33;;;;;;;71.78;38.10;;;10.50;99.90;;;;;;5034148;28;20623;-65
2023/10/21 03:36:01;;;;;;;70.07;39.03;;;10.50;99.90;;;;;;5016847;28;20187;-70
2023/10/21 03:38:27;;;;;;;72.85;38.53;;;10.50;99.90;;;;;;5034023;28;20239;-68
2023/10/21 03:41:07;;;;;;;78.18;39.67;;;10.50;99.90;;;;;;5034513;28;20183;-72
2023/10/21 03:43:34;;;;;;;72.43;38.80;;;10.50;99.90;;;;;;5016603;28;20172;-70
2023/10/21 03:46:07;;;;;;;68.10;38.47;;;10.50;99.90;;;;;;5034123;28;20176;-67
2023/10/21 03:48:34;;;;;;;79.07;39.55;;;10.50;99.90;;;;;;5016590;28;20224;-67
2023/10/21 03:51:09;;;;;;;72.60;39.30;;;10.50;99.90;;;;;;5016739;28;20294;-70
2023/10/21 03:53:36;;;;;;;70.03;39.28;;;10.50;99.90;;;;;;5016335;28;20160;-62
2023/10/21 03:56:02;;;;;;;68.35;38.47;;;10.60;99.90;;;;;;5034008;28;20638;-73
2023/10/21 03:58:29;;;;;;;70.93;38.30;;;10.50;99.90;;;;;;5033947;28;20174;-68
2023/10/21 04:00:57;;;;;;;73.57;38.22;;;10.50;99.90;;;;;;5034654;28;20297;-62
2023/10/21 04:03:24;;;;;;;70.82;38.05;;;10.50;99.90;;;;;;5016568;28;20238;-61
2023/10/21 04:05:55;;;;;;;71.13;39.08;;;10.60;99.90;;;;;;5034424;28;20187;-65
2023/10/21 04:08:22;;;;;;;74.78;38.03;;;10.60;99.90;;;;;;5033829;28;20196;-66
2023/10/21 04:10:48;;;;;;;69.57;37.20;;;10.60;99.90;;;;;;5034029;28;20255;-66
2023/10/21 04:13:14;;;;;;;68.30;37.42;;;10.60;99.90;;;;;;5033652;28;20187;-69
2023/10/21 04:15:41;;;;;;;86.18;40.72;;;10.60;99.90;;;;;;4999581;28;20191;-69
2023/10/21 04:18:07;;;;;;;74.80;39.40;;;10.60;99.90;;;;;;5016296;28;20426;-62
2023/10/21 04:20:33;;;;;;;76.30;39.20;;;10.60;99.90;;;;;;5015536;28;20263;-69
2023/10/21 04:23:00;;;;;;;74.88;38.92;;;10.50;99.90;;;;;;5032095;28;20179;-62
2023/10/21 04:25:28;;;;;;;76.38;38.78;;;10.50;99.90;;;;;;5033414;28;20236;-63
2023/10/21 04:27:55;;;;;;;76.85;38.92;;;10.50;99.90;;;;;;5033030;28;20683;-71
2023/10/21 04:30:23;;;;;;;76.88;38.92;;;10.50;99.90;;;;;;5033559;28;20180;-65
2023/10/21 04:32:50;;;;;;;69.53;37.45;;;10.50;99.90;;;;;;5033238;28;20736;-68
2023/10/21 04:35:15;;;;;;;69.47;37.40;;;10.50;99.90;;;;;;5033865;28;20279;-68
2023/10/21 04:37:41;;;;;;;73.68;37.22;;;10.50;99.90;;;;;;5015606;28;20211;-62
2023/10/21 04:40:08;;;;;;;69.05;37.15;;;10.40;99.90;;;;;;5032887;28;20619;-72
2023/10/21 04:42:34;;;;;;;68.68;36.22;;;10.40;99.90;;;;;;5015434;28;20196;-63
2023/10/21 04:45:00;;;;;;;71.07;36.25;;;10.40;99.90;;;;;;5033192;28;20176;-68
2023/10/21 04:47:27;;;;;;;64.95;35.13;;;10.40;99.90;;;;;;5015231;28;20302;-63
2023/10/21 04:49:53;;;;;;;70.95;35.45;;;10.40;99.90;;;;;;5015315;28;20219;-68
2023/10/21 04:52:19;;;;;;;57.60;33.58;;;10.40;99.90;;;;;;5033124;28;20266;-68
2023/10/21 04:54:45;;;;;;;59.10;33.83;;;10.30;99.90;;;;;;5032822;28;20222;-63
2023/10/21 04:57:11;;;;;;;65.82;35.55;;;10.30;99.90;;;;;;5031339;28;20188;-62
2023/10/21 04:59:40;;;;;;;51.28;30.55;;;10.30;99.90;;;;;;5032854;28;20325;-70
2023/10/21 05:02:07;;;;;;;62.58;33.50;;;10.30;99.90;;;;;;5014728;28;20195;-66
2023/10/21 05:04:34;;;;;;;62.30;33.72;;;10.20;99.90;;;;;;5032702;28;20180;-62
2023/10/21 05:07:02;;;;;;;62.30;33.20;;;10.20;99.90;;;;;;5032516;28;20274;-66
2023/10/21 05:09:29;;;;;;;56.70;32.67;;;10.20;99.90;;;;;;5032394;28;20218;-67
2023/10/21 05:11:54;;;;;;;58.25;32.75;;;10.20;99.90;;;;;;5032788;28;20279;-62
2023/10/21 05:14:20;;;;;;;61.35;32.92;;;10.20;99.90;;;;;;5032629;28;20283;-63
2023/10/21 05:16:47;;;;;;;63.35;33.88;;;10.10;99.90;;;;;;5032632;28;20274;-61
2023/10/21 05:19:13;;;;;;;54.05;31.00;;;10.10;99.90;;;;;;5015301;28;20192;-65
2023/10/21 05:21:39;;;;;;;59.65;32.65;;;10.10;99.90;;;;;;5032891;28;20210;-64
2023/10/21 05:24:05;;;;;;;54.78;30.80;;;10.00;99.90;;;;;;5032265;28;20180;-61
2023/10/21 05:26:31;;;;;;;64.43;32.75;;;10.00;99.90;;;;;;5032297;28;20234;-62
2023/10/21 05:28:58;;;;;;;62.35;33.47;;;10.00;99.90;;;;;;5032218;28;20227;-65
2023/10/21 05:31:24;;;;;;;62.30;33.83;;;10.00;99.90;;;;;;5032092;28;20721;-68
2023/10/21 05:33:50;;;;;;;63.90;34.10;;;10.00;99.90;;;;;;5032080;28;20184;-65
2023/10/21 05:36:17;;;;;;;62.67;32.97;;;10.00;99.90;;;;;;5032325;28;20677;-68
2023/10/21 05:38:43;;;;;;;61.75;31.75;;;10.00;99.90;;;;;;5014707;28;20654;-66
2023/10/21 05:41:09;;;;;;;61.50;32.08;;;10.00;99.90;;;;;;5032317;28;20195;-62
2023/10/21 05:43:34;;;;;;;58.75;31.30;;;10.00;99.90;;;;;;5032242;28;20225;-67
2023/10/21 05:46:04;;;;;;;58.53;31.05;;;10.00;99.90;;;;;;5014847;28;20587;-64
2023/10/21 05:48:30;;;;;;;61.95;31.23;;;10.00;99.90;;;;;;5032098;28;20207;-61
2023/10/21 05:51:02;;;;;;;59.08;31.50;;;10.00;99.90;;;;;;5032101;28;20190;-68
2023/10/21 05:53:29;;;;;;;56.28;30.77;;;10.00;99.90;;;;;;5031832;28;20152;-68
2023/10/21 05:55:56;;;;;;;56.33;30.98;;;10.00;99.90;;;;;;5014203;28;20202;-63
2023/10/21 05:58:23;;;;;;;75.05;45.72;;;10.00;99.90;;;;;;5031804;28;20218;-60
2023/10/21 06:00:49;;;;;;;52.22;29.55;;;10.00;99.90;;;;;;5031644;28;20219;-66
2023/10/21 06:03:15;;;;;;;54.65;29.90;;;10.10;99.90;;;;;;5031800;28;20179;-63
2023/10/21 06:05:41;;;;;;;53.20;30.98;;;10.10;99.90;;;;;;5014688;28;20345;-60
2023/10/21 06:08:07;;;;;;;55.15;31.25;;;10.10;99.90;;;;;;5014111;28;20215;-66
2023/10/21 06:10:35;;;;;;;57.85;30.00;;;10.10;99.90;;;;;;5032214;28;20666;-64
2023/10/21 06:13:01;;;;;;;54.17;30.17;;;10.10;99.90;;;;;;5032047;28;20274;-62
2023/10/21 06:15:27;;;;;;;54.92;29.70;;;10.20;99.90;;;;;;5014003;28;20198;-60
2023/10/21 06:17:53;;;;;;;51.35;29.33;;;10.20;99.90;;;;;;4997878;28;20180;-67
2023/10/21 06:20:19;;;;;;;51.58;29.73;;;10.20;99.90;;;;;;5030023;28;20271;-63
2023/10/21 06:22:45;;;;;;;49.88;29.63;;;10.30;99.90;;;;;;5030305;28;20306;-61
2023/10/21 06:25:11;;;;;;;49.30;28.92;;;10.30;99.90;;;;;;5030601;28;20179;-64
2023/10/21 06:27:37;;;;;;;49.88;29.17;;;10.30;99.90;;;;;;5014021;28;20624;-62
2023/10/21 06:30:04;;;;;;;43.22;27.85;;;10.30;99.90;;;;;;5031477;28;20249;-62
2023/10/21 06:32:31;;;;;;;43.67;27.02;;;10.40;99.90;;;;;;5031548;28;20191;-61
2023/10/21 06:34:57;;;;;;;42.67;26.52;;;10.40;99.90;;;;;;5031631;28;20273;-64
2023/10/21 06:37:23;;;;;;;43.42;26.95;;;10.50;99.90;;;;;;5031266;28;20219;-63
2023/10/21 06:39:50;;;;;;;45.95;26.50;;;10.50;99.90;;;;;;5031970;28;20187;-64
2023/10/21 06:42:15;;;;;;;45.35;26.58;;;10.50;99.90;;;;;;5032297;28;20192;-69
2023/10/21 06:44:42;;;;;;;40.90;26.40;;;10.50;99.90;;;;;;5031802;28;20624;-64
2023/10/21 06:47:08;;;;;;;40.50;26.75;;;10.60;99.90;;;;;;5031229;28;20238;-62
2023/10/21 06:49:34;;;;;;;41.97;24.98;;;10.60;99.90;;;;;;5031304;28;20188;-68
2023/10/21 06:52:00;;;;;;;47.25;25.65;;;10.60;99.90;;;;;;5031500;28;20703;-63
2023/10/21 06:54:26;;;;;;;37.70;23.13;;;10.70;99.90;;;;;;5031727;28;20694;-69
2023/10/21 06:56:52;;;;;;;39.97;25.95;;;10.70;99.90;;;;;;5031382;28;20180;-68
2023/10/21 06:59:19;;;;;;;37.55;24.35;;;10.70;99.90;;;;;;5013832;28;20630;-67
2023/10/21 07:01:46;;;;;;;36.15;23.73;;;10.70;99.90;;;;;;5013618;28;20216;-63
2023/10/21 07:04:13;;;;;;;41.83;23.80;;;10.80;99.90;;;;;;4997345;28;20192;-64
2023/10/21 07:06:40;;;;;;;35.85;23.35;;;10.80;99.90;;;;;;5031737;28;20199;-61
2023/10/21 07:09:09;;;;;;;37.83;23.83;;;10.80;99.90;;;;;;4997240;28;20208;-72
2023/10/21 07:11:34;;;;;;;47.97;31.10;;;10.90;99.90;;;;;;5031081;28;20195;-65
2023/10/21 07:14:00;;;;;;;43.05;25.20;;;10.90;99.90;;;;;;5033188;28;20180;-68
2023/10/21 07:16:26;;;;;;;38.13;25.17;;;10.90;99.90;;;;;;5017160;28;20270;-64
2023/10/21 07:18:52;;;;;;;36.78;24.30;;;11.00;99.90;;;;;;5034674;28;20179;-68
2023/10/21 07:21:19;;;;;;;41.22;23.77;;;11.10;99.90;;;;;;5035324;28;20202;-63
2023/10/21 07:23:45;;;;;;;40.17;24.48;;;11.10;99.90;;;;;;5034526;28;20265;-67
2023/10/21 07:26:11;;;;;;;34.25;23.05;;;11.10;99.90;;;;;;5034511;28;20176;-69
2023/10/21 07:28:38;;;;;;;31.95;22.55;;;11.20;99.90;;;;;;5034170;28;20207;-70
2023/10/21 07:31:04;;;;;;;34.20;22.42;;;11.20;99.90;;;;;;5034153;28;20553;-64
2023/10/21 07:33:30;;;;;;;33.45;21.30;;;11.30;99.90;;;;;;5034250;28;20695;-63
2023/10/21 07:35:56;;;;;;;37.60;22.40;;;11.30;99.90;;;;;;5033297;28;20183;-67
2023/10/21 07:38:22;;;;;;;30.52;20.45;;;11.30;99.90;;;;;;5034394;28;20210;-64
2023/10/21 07:40:48;;;;;;;31.13;21.45;;;11.40;99.90;;;;;;5034717;28;20589;-66
2023/10/21 07:43:17;;;;;;;33.15;20.83;;;11.40;99.90;;;;;;5034181;28;20212;-62
2023/10/21 07:45:44;;;;;;;30.77;20.23;;;11.50;99.90;;;;;;5033812;28;20184;-67
2023/10/21 07:48:10;;;;;;;31.13;20.83;;;11.50;99.90;;;;;;5033761;28;20200;-64
2023/10/21 07:50:37;;;;;;;30.33;19.52;;;11.50;99.90;;;;;;5034388;28;20195;-73
2023/10/21 07:53:03;;;;;;;29.50;20.45;;;11.60;99.90;;;;;;5034136;28;20180;-62
2023/10/21 07:55:29;;;;;;;29.45;19.50;;;11.60;99.90;;;;;;5033900;28;20269;-71
2023/10/21 07:57:56;;;;;;;28.52;18.88;;;11.70;99.90;;;;;;5033748;28;20503;-67
2023/10/21 08:00:22;;;;;;;33.40;21.75;;;11.70;99.90;;;;;;5033446;28;20254;-62
2023/10/21 08:02:48;;;;;;;31.00;19.83;;;11.80;99.90;;;;;;5033223;28;20180;-62
2023/10/21 08:05:15;;;;;;;27.73;19.38;;;11.80;99.90;;;;;;5032550;28;20188;-72
2023/10/21 08:07:41;;;;;;;29.55;18.83;;;11.90;99.90;;;;;;5033571;28;20211;-72
2023/10/21 08:10:07;;;;;;;27.65;19.23;;;11.90;99.90;;;;;;4999673;28;20563;-65
2023/10/21 08:12:34;;;;;;;29.48;18.95;;;12.00;99.90;;;;;;5033710;28;20186;-65
2023/10/21 08:15:08;;;;;;;28.63;19.67;;;12.00;99.90;;;;;;5033591;28;20176;-67
2023/10/21 08:17:37;;;;;;;27.35;17.42;;;12.10;99.90;;;;;;5015042;28;20590;-69
2023/10/21 08:20:04;;;;;;;27.63;17.88;;;12.10;99.90;;;;;;5015454;28;20229;-73
2023/10/21 08:22:33;;;;;;;25.77;17.70;;;12.20;99.90;;;;;;5033497;28;20188;-65
2023/10/21 08:24:59;;;;;;;26.23;17.75;;;12.20;99.90;;;;;;5014776;28;20207;-70
2023/10/21 08:27:25;;;;;;;26.50;18.15;;;12.30;99.90;;;;;;5033281;28;20628;-63
2023/10/21 08:29:53;;;;;;;27.95;19.13;;;12.40;99.90;;;;;;5032935;28;20636;-64
2023/10/21 08:32:19;;;;;;;25.98;19.13;;;12.40;99.90;;;;;;5015540;28;20544;-64
2023/10/21 08:34:45;;;;;;;27.15;19.00;;;12.50;99.90;;;;;;5016064;28;20184;-64
2023/10/21 08:37:11;;;;;;;27.15;18.75;;;12.50;99.90;;;;;;5015302;28;20191;-65
2023/10/21 08:39:37;;;;;;;29.05;19.30;;;12.50;99.90;;;;;;5033116;28;20184;-63
2023/10/21 08:42:03;;;;;;;29.13;19.23;;;12.50;99.90;;;;;;5032600;28;20183;-64
2023/10/21 08:44:30;;;;;;;30.80;19.15;;;12.60;99.90;;;;;;5032896;28;20227;-63
2023/10/21 08:46:59;;;;;;;29.13;19.20;;;12.70;99.90;;;;;;5032961;28;20192;-64
2023/10/21 08:49:25;;;;;;;30.80;19.08;;;12.70;99.90;;;;;;5033637;28;20298;-65
2023/10/21 08:51:53;;;;;;;28.10;18.80;;;12.70;99.90;;;;;;5032944;28;20267;-70
2023/10/21 08:54:23;;;;;;;33.28;22.77;;;12.70;99.90;;;;;;5033144;28;20188;-69
2023/10/21 08:56:49;;;;;;;32.55;20.42;;;12.80;99.90;;;;;;4999001;28;20541;-69
2023/10/21 08:59:15;;;;;;;28.40;21.80;;;12.80;99.90;;;;;;5014006;28;20442;-59
2023/10/21 09:01:42;;;;;;;24.90;18.00;;;12.90;99.90;;;;;;5032832;28;20262;-55
2023/10/21 09:04:08;;;;;;;25.83;17.42;;;13.00;99.90;;;;;;5032645;28;20273;-56
2023/10/21 09:06:34;;;;;;;25.20;17.23;;;13.00;99.90;;;;;;5032365;28;20219;-56
2023/10/21 09:09:00;;;;;;;22.40;16.40;;;13.10;99.90;;;;;;5032648;28;20219;-57
2023/10/21 09:11:27;;;;;;;21.80;16.55;;;13.10;99.90;;;;;;5032600;28;20192;-59
2023/10/21 09:13:58;;;;;;;25.58;17.85;;;13.20;99.90;;;;;;5031577;28;20584;-58
2023/10/21 09:16:25;;;;;;;23.45;16.33;;;13.20;99.90;;;;;;5015256;28;20171;-56
2023/10/21 09:19:01;;;;;;;25.33;17.00;;;13.30;99.90;;;;;;5032524;28;20663;-57
2023/10/21 09:21:39;;;;;;;22.65;15.90;;;13.30;99.90;;;;;;5014944;28;20167;-59
2023/10/21 09:24:23;;;;;;;22.23;16.02;;;13.40;99.90;;;;;;5032422;28;20168;-55
2023/10/21 09:26:49;;;;;;;27.00;17.00;;;13.40;99.90;;;;;;5032411;28;20230;-58
2023/10/21 09:29:22;;;;;;;25.17;16.73;;;13.50;99.90;;;;;;5032024;28;20207;-56
2023/10/21 09:31:53;;;;;;;22.58;16.55;;;13.50;99.90;;;;;;5031056;28;20176;-57
2023/10/21 09:34:24;;;;;;;25.30;16.75;;;13.60;99.90;;;;;;5014792;28;20502;-55
2023/10/21 09:36:55;;;;;;;26.45;16.98;;;13.70;99.90;;;;;;5031728;28;20180;-58
2023/10/21 09:39:24;;;;;;;23.85;15.73;;;13.80;99.90;;;;;;5032312;28;20172;-55
2023/10/21 09:41:50;;;;;;;24.77;16.23;;;13.90;99.90;;;;;;5032208;28;20172;-55
2023/10/21 09:44:17;;;;;;;22.60;16.17;;;14.00;99.90;;;;;;5031984;28;20176;-53
2023/10/21 09:46:44;;;;;;;23.70;15.05;;;14.10;99.90;;;;;;5014178;28;20183;-59
2023/10/21 09:49:14;;;;;;;38.58;26.77;;;14.30;99.90;;;;;;5014227;28;20655;-58
2023/10/21 09:52:05;;;;;;;19.25;15.00;;;14.30;99.90;;;;;;5032358;28;20184;-51
2023/10/21 09:54:40;;;;;;;21.00;14.43;;;14.40;99.90;;;;;;5031856;28;20640;-57
2023/10/21 09:57:11;;;;;;;22.63;14.00;;;14.40;99.90;;;;;;5032217;28;20180;-53
2023/10/21 09:59:38;;;;;;;22.10;14.52;;;14.50;99.90;;;;;;4997583;28;20251;-55
2023/10/21 10:02:06;;;;;;;20.70;13.00;;;14.60;99.90;;;;;;5031387;28;20191;-53
2023/10/21 10:04:37;;;;;;;26.05;13.43;;;14.70;99.90;;;;;;5032421;28;20250;-54
2023/10/21 10:07:07;;;;;;;17.70;10.75;;;14.80;99.90;;;;;;5032014;28;20167;-52
2023/10/21 10:09:39;;;;;;;12.55;8.48;;;14.80;99.90;;;;;;5031854;28;20212;-51
2023/10/21 10:12:25;;;;;;;18.98;8.15;;;14.90;99.90;;;;;;5014120;28;20172;-54
2023/10/21 10:14:54;;;;;;;13.10;7.30;;;14.90;99.90;;;;;;5031787;28;20176;-54
2023/10/21 10:17:51;;;;;;;10.60;6.60;;;15.00;99.90;;;;;;5013909;28;20176;-57
2023/10/21 10:20:23;;;;;;;13.05;6.03;;;15.00;99.90;;;;;;5014063;28;20647;-53
2023/10/21 10:23:07;;;;;;;13.23;5.78;;;15.00;99.90;;;;;;5031536;28;20521;-52
2023/10/21 10:25:36;;;;;;;8.98;5.40;;;15.10;99.90;;;;;;5031643;28;20223;-56
2023/10/21 10:28:10;;;;;;;10.20;5.05;;;15.10;99.90;;;;;;5031870;28;20209;-55
2023/10/21 10:31:01;;;;;;;10.30;4.53;;;15.20;99.90;;;;;;5031339;28;20175;-55
2023/10/21 10:33:38;;;;;;;10.35;4.72;;;15.20;99.90;;;;;;5031342;28;20295;-51
2023/10/21 10:36:06;;;;;;;9.77;4.80;;;15.20;99.90;;;;;;5031880;28;20164;-54
2023/10/21 10:38:44;;;;;;;14.15;6.55;;;15.30;99.90;;;;;;5013873;28;20184;-55
2023/10/21 10:41:15;;;;;;;9.35;4.38;;;15.30;99.90;;;;;;5031436;28;20164;-55
2023/10/21 10:43:44;;;;;;;8.38;4.70;;;15.30;99.90;;;;;;5031480;28;20609;-54
2023/10/21 10:46:15;;;;;;;7.45;4.13;;;15.30;99.90;;;;;;4997589;28;20204;-52
2023/10/21 10:48:42;;;;;;;9.75;4.80;;;15.30;99.90;;;;;;5034483;28;20669;-54
2023/10/21 10:51:14;;;;;;;9.20;4.70;;;15.30;99.90;;;;;;5035306;28;20270;-56
2023/10/21 10:53:44;;;;;;;7.43;4.50;;;15.40;99.90;;;;;;5035501;28;20164;-53
2023/10/21 10:56:14;;;;;;;9.82;4.07;;;15.40;99.90;;;;;;5017720;28;20238;-52
2023/10/21 10:58:45;;;;;;;8.10;4.95;;;15.40;99.90;;;;;;5017142;28;20187;-56
2023/10/21 11:01:25;;;;;;;14.23;4.20;;;15.30;99.90;;;;;;5034934;28;20164;-56
2023/10/21 11:04:00;;;;;;;10.05;3.97;;;15.40;99.90;;;;;;5017448;28;20241;-54
2023/10/21 11:06:31;;;;;;;8.02;3.22;;;15.40;99.90;;;;;;5034911;28;20176;-51
2023/10/21 11:09:00;;;;;;;4.63;2.80;;;15.30;99.90;;;;;;5034798;28;20210;-53
2023/10/21 11:11:29;;;;;;;4.22;2.30;;;15.40;99.90;;;;;;5033210;28;20204;-56
2023/10/21 11:13:55;;;;;;;3.97;2.50;;;15.40;99.90;;;;;;5034301;28;20184;-56
2023/10/21 11:16:21;;;;;;;6.05;2.88;;;15.50;99.90;;;;;;5033295;28;20271;-54
2023/10/21 11:18:47;;;;;;;4.88;2.40;;;15.50;99.90;;;;;;5033027;28;20263;-59
2023/10/21 11:21:13;;;;;;;4.15;2.50;;;15.40;99.90;;;;;;5034157;28;20183;-56
2023/10/21 11:23:39;;;;;;;8.52;2.15;;;15.40;99.90;;;;;;5034388;28;20179;-58
2023/10/21 11:26:08;;;;;;;2.20;1.98;;;15.40;99.90;;;;;;5034468;28;20206;-55
2023/10/21 11:28:37;;;;;;;4.63;2.05;;;15.40;99.90;;;;;;5034208;28;20226;-55
2023/10/21 11:31:04;;;;;;;3.95;1.80;;;15.40;99.90;;;;;;5016683;28;20184;-56
2023/10/21 11:33:30;;;;;;;3.50;1.80;;;15.40;99.90;;;;;;5016694;28;20176;-54
2023/10/21 11:35:58;;;;;;;2.78;1.80;;;15.40;99.90;;;;;;5034194;28;20191;-54
2023/10/21 11:38:24;;;;;;;2.30;1.77;;;15.50;99.90;;;;;;5034362;28;20581;-62
2023/10/21 11:40:50;;;;;;;2.38;1.65;;;15.50;99.90;;;;;;5034131;28;20210;-52
2023/10/21 11:43:18;;;;;;;3.00;2.10;;;15.60;99.90;;;;;;5034905;28;20622;-55
2023/10/21 11:45:46;;;;;;;5.10;2.30;;;15.60;99.90;;;;;;5016420;28;20520;-56
2023/10/21 11:48:16;;;;;;;8.27;2.33;;;15.80;99.90;;;;;;5033800;28;20215;-54
2023/10/21 11:50:44;;;;;;;3.13;1.77;;;15.80;99.90;;;;;;5033828;28;20263;-54
2023/10/21 11:53:14;;;;;;;5.13;2.10;;;15.80;99.90;;;;;;5034366;28;20195;-56
2023/10/21 12:17:08;;;;;;;2.50;1.38;;;15.60;99.90;;;;;;5033656;28;20215;-57
2023/10/21 12:43:35;;;;;;;4.20;1.40;;;15.80;99.90;;;;;;5032921;28;20168;-54
2023/10/21 12:46:25;;;;;;;3.45;1.30;;;15.90;99.90;;;;;;5031579;28;20752;-57
2023/10/21 12:48:52;;;;;;;3.70;1.40;;;15.90;99.90;;;;;;5032965;28;20223;-54
2023/10/21 12:51:22;;;;;;;5.20;2.30;;;15.90;99.90;;;;;;5033533;28;20274;-56
2023/10/21 12:53:49;;;;;;;2.65;1.20;;;15.80;99.90;;;;;;5015930;28;20639;-56
2023/10/21 12:56:15;;;;;;;5.38;1.88;;;15.80;99.90;;;;;;5031502;28;20176;-58
2023/10/21 12:58:42;;;;;;;5.13;1.65;;;15.80;99.90;;;;;;5032223;28;20219;-55
2023/10/21 13:01:15;;;;;;;2.65;1.10;;;15.80;99.90;;;;;;5032800;28;20172;-58
2023/10/21 13:03:42;;;;;;;2.92;1.40;;;15.90;99.90;;;;;;5032097;28;20181;-57
2023/10/21 13:06:09;;;;;;;2.97;1.10;;;15.90;99.90;;;;;;5032424;28;20172;-57
2023/10/21 13:08:36;;;;;;;4.57;1.40;;;15.90;99.90;;;;;;5030906;28;20204;-55
2023/10/21 13:11:02;;;;;;;3.55;1.50;;;16.00;99.90;;;;;;5013795;28;20199;-59
2023/10/21 13:13:29;;;;;;;5.78;1.70;;;16.00;99.90;;;;;;5032141;28;20575;-56
2023/10/21 13:15:55;;;;;;;5.72;1.30;;;16.10;99.90;;;;;;5032660;28;20184;-53
2023/10/21 13:18:26;;;;;;;2.83;1.20;;;16.10;99.90;;;;;;5014581;28;20263;-58